Aérodrome :
LOGIN :

S'inscrire | Disclaimer

   EN    FR    IT 

 










Légende :    VFR   VFR Marginal   IFR   IFR Intensif   IFR Très Intensif
Visi : 
Plafond : 
>= 8 km
>= 3000ft
5 à 8 km
1000 à 3000 ft
1500m à 5 km
500 à 1000 ft
800 à 1500m
200 à 500 ft
< 800m
< 200 ft
Symboles :   Orages  Brouillard  Fortes neiges  Fortes précipitations  Vent > 20 kt
SIGMETs :   Divers  Orages  Givrage  Turbulence  Onde Orograph.  Cendres Volcan.






- Altitude de l'aérodrome : 49 ft
- Code IATA : SEN


EGMC - Southend

DERNIER METAR :
  • 150250Z 24017KT 9999 -SHRA FEW020 07/04 Q0988

METARs EXPIRÉS :
  • 150220Z 23014KT 9999 FEW020 07/05 Q0988
  • 150150Z 23012KT 9999 FEW020 06/05 Q0987
  • 150120Z 23013KT 9999 FEW020 06/05 Q0987
  • 150020Z 25011KT 5000 RA SCT011 BKN019 07/06 Q0987

TAF TAF EGMC
Valide du 15 à 03h jusqu'au 15 à 12h UTC


150200Z 1503/1512 20015KT 9999 FEW025
TEMPO 1503/1512 23020G30KT



MET'MAP, la Météo Aéronautique d'un coup d'oeil ! - Copyright ORBIFLY Décembre 2007 - Disclaimer

ORBIFLY MET'MAP TEAM :

Programmation & Développement : Alexandra Zaïnal
Sur une idée originale de : Baudouin d'Aumeries
Assistance à la programmation : Marc-Olivier Méhu
Soutien technique & logistique : Manuel Goepfert

Contact : metmap@orbifly.com




SOURCES & CREDITS :

   NOAA